createdAt,value
2019-05-13T00:01:07.130Z,102152.86
2019-05-13T00:03:34.724Z,102159.89
2019-05-13T00:06:04.390Z,102159.36
2019-05-13T00:08:34.083Z,102155.53
2019-05-13T00:11:04.717Z,102159.88
2019-05-13T00:13:34.340Z,102155.95
2019-05-13T00:16:04.013Z,102152.76
2019-05-13T00:18:34.122Z,102157.08
2019-05-13T00:21:03.952Z,102160.91
2019-05-13T00:23:34.061Z,102171.22
2019-05-13T00:26:04.107Z,102163.67
2019-05-13T00:28:34.434Z,102168.73
2019-05-13T00:31:04.326Z,102171.00
2019-05-13T00:33:34.128Z,102167.89
2019-05-13T00:36:04.127Z,102170.06
2019-05-13T00:38:33.881Z,102173.76
2019-05-13T00:41:03.825Z,102178.16
2019-05-13T00:43:33.985Z,102170.84
2019-05-13T00:46:04.082Z,102182.48
2019-05-13T00:48:33.835Z,102186.16
2019-05-13T00:51:03.896Z,102184.23
2019-05-13T00:53:35.282Z,102184.23
2019-05-13T00:56:05.238Z,102194.02
2019-05-13T00:58:34.828Z,102192.08
2019-05-13T01:01:04.486Z,102190.29
2019-05-13T01:03:34.082Z,102188.51
2019-05-13T01:06:04.264Z,102190.80
2019-05-13T01:08:34.031Z,102182.49
2019-05-13T01:11:04.366Z,102188.06
2019-05-13T01:13:34.400Z,102193.27
2019-05-13T01:16:04.231Z,102192.97
2019-05-13T01:18:34.229Z,102189.36
2019-05-13T01:21:04.516Z,102190.59
2019-05-13T01:23:34.510Z,102196.24
2019-05-13T01:26:04.434Z,102201.69
2019-05-13T01:28:34.612Z,102200.80
2019-05-13T01:31:06.963Z,102204.81
2019-05-13T01:33:36.569Z,102202.31
2019-05-13T01:36:06.350Z,102199.08
2019-05-13T01:38:35.945Z,102202.70
2019-05-13T01:41:05.624Z,102205.77
2019-05-13T01:43:35.223Z,102203.98
2019-05-13T01:46:04.988Z,102204.32
2019-05-13T01:48:34.577Z,102202.78
2019-05-13T01:51:04.182Z,102206.86
2019-05-13T01:53:33.862Z,102209.31
2019-05-13T01:56:04.080Z,102206.94
2019-05-13T01:58:34.124Z,102209.39
2019-05-13T02:01:05.072Z,102209.52
2019-05-13T02:03:35.060Z,102209.07
2019-05-13T02:06:04.660Z,102217.63
2019-05-13T02:08:34.241Z,102221.27
2019-05-13T02:11:04.509Z,102225.52
2019-05-13T02:13:34.680Z,102219.82
2019-05-13T02:16:04.554Z,102230.53
2019-05-13T02:18:34.471Z,102232.48
2019-05-13T02:21:05.523Z,102233.89
2019-05-13T02:23:35.502Z,102230.95
2019-05-13T02:26:05.185Z,102236.30
2019-05-13T02:28:34.775Z,102240.40
2019-05-13T02:31:06.899Z,102240.97
2019-05-13T02:33:36.498Z,102236.77
2019-05-13T02:36:06.088Z,102234.09
2019-05-13T02:38:36.022Z,102236.45
2019-05-13T02:41:05.692Z,102233.20
2019-05-13T02:43:35.825Z,102233.20
2019-05-13T02:46:05.673Z,102240.77
2019-05-13T02:48:35.338Z,102240.91
2019-05-13T02:51:04.945Z,102244.27
2019-05-13T02:53:34.547Z,102239.74
2019-05-13T02:56:04.175Z,102240.70
2019-05-13T02:58:33.999Z,102249.10
2019-05-13T03:01:03.798Z,102246.92
2019-05-13T03:03:33.579Z,102244.41
2019-05-13T03:06:03.372Z,102245.59
2019-05-13T03:08:44.629Z,102248.39
2019-05-13T03:11:04.560Z,102247.83
2019-05-13T03:13:34.142Z,102248.27
2019-05-13T03:16:07.990Z,102251.05
2019-05-13T03:18:37.596Z,102250.08
2019-05-13T03:21:07.192Z,102252.16
2019-05-13T03:23:36.787Z,102260.83
2019-05-13T03:26:06.392Z,102258.47
2019-05-13T03:28:35.995Z,102257.20
2019-05-13T03:31:07.532Z,102259.12
2019-05-13T03:33:38.018Z,102256.52
2019-05-13T03:36:08.528Z,102256.88
2019-05-13T03:38:58.126Z,102256.60
2019-05-13T03:41:12.402Z,102251.63
2019-05-13T03:43:44.447Z,102256.60
2019-05-13T03:46:14.710Z,102258.25
2019-05-13T03:48:45.223Z,102254.09
2019-05-13T03:51:15.015Z,102258.41
2019-05-13T03:53:45.244Z,102264.63
2019-05-13T03:56:15.227Z,102262.63
2019-05-13T03:58:44.969Z,102264.81
2019-05-13T04:01:14.559Z,102264.03
2019-05-13T04:03:44.443Z,102266.70
2019-05-13T04:06:14.805Z,102277.05
2019-05-13T04:08:44.827Z,102277.17
2019-05-13T04:11:14.609Z,102277.30
2019-05-13T04:13:44.371Z,102276.36
2019-05-13T04:16:14.132Z,102281.02
2019-05-13T04:18:43.905Z,102276.66
2019-05-13T04:21:13.786Z,102283.78
2019-05-13T04:23:43.642Z,102282.38
2019-05-13T04:26:14.816Z,102288.19
2019-05-13T04:28:44.562Z,102293.84
2019-05-13T04:31:14.831Z,102293.27
2019-05-13T04:33:44.661Z,102294.11
2019-05-13T04:36:14.256Z,102302.64
2019-05-13T04:38:44.779Z,102295.21
2019-05-13T04:41:14.638Z,102298.64
2019-05-13T04:43:44.553Z,102302.15
2019-05-13T04:46:14.727Z,102307.73
2019-05-13T04:48:44.898Z,102306.30
2019-05-13T04:51:14.688Z,102313.71
2019-05-13T04:53:44.531Z,102320.47
2019-05-13T04:56:14.493Z,102319.94
2019-05-13T04:58:44.574Z,102319.56
2019-05-13T05:01:23.801Z,102317.94
2019-05-13T05:04:13.952Z,102328.91
2019-05-13T05:06:52.657Z,102329.55
2019-05-13T05:10:21.239Z,102327.33
2019-05-13T05:12:59.032Z,102326.35
2019-05-13T05:16:03.731Z,102338.97
2019-05-13T05:19:12.968Z,102333.35
2019-05-13T05:22:13.550Z,102339.47
2019-05-13T05:24:53.602Z,102337.86
2019-05-13T05:28:11.182Z,102340.04
2019-05-13T05:30:57.597Z,102328.63
2019-05-13T05:34:08.188Z,102342.34
2019-05-13T05:37:06.554Z,102347.24
2019-05-13T05:39:39.366Z,102343.00
2019-05-13T05:42:12.586Z,102342.92
2019-05-13T05:44:45.269Z,102348.39
2019-05-13T05:47:17.078Z,102349.66
2019-05-13T05:49:47.522Z,102353.41
2019-05-13T05:52:21.300Z,102352.98
2019-05-13T05:54:53.758Z,102361.45
2019-05-13T05:57:27.469Z,102361.67
2019-05-13T05:59:57.449Z,102358.45
2019-05-13T06:02:32.204Z,102369.73
2019-05-13T06:05:02.888Z,102368.88
2019-05-13T06:07:34.550Z,102362.88
2019-05-13T06:10:06.003Z,102363.86
2019-05-13T06:12:36.707Z,102367.56
2019-05-13T06:15:12.339Z,102362.89
2019-05-13T06:17:41.565Z,102364.44
2019-05-13T06:20:13.400Z,102360.05
2019-05-13T06:22:42.764Z,102366.52
2019-05-13T06:25:14.642Z,102361.52
2019-05-13T06:27:44.099Z,102359.62
2019-05-13T06:30:15.028Z,102368.59
2019-05-13T06:32:44.630Z,102369.45
2019-05-13T06:35:14.771Z,102373.69
2019-05-13T06:37:44.374Z,102371.98
2019-05-13T06:40:14.324Z,102375.73
2019-05-13T06:42:43.927Z,102375.02
2019-05-13T06:45:14.055Z,102380.16
2019-05-13T06:47:43.651Z,102383.03
2019-05-13T06:50:13.716Z,102384.38
2019-05-13T06:52:43.401Z,102382.95
2019-05-13T06:55:13.181Z,102379.77
2019-05-13T06:57:42.806Z,102381.98
2019-05-13T07:00:13.323Z,102381.77
2019-05-13T07:02:42.943Z,102388.16
2019-05-13T07:05:13.046Z,102383.94
2019-05-13T07:07:42.734Z,102376.75
2019-05-13T07:10:12.929Z,102381.84
2019-05-13T07:12:42.569Z,102371.00
2019-05-13T07:15:12.864Z,102369.27
2019-05-13T07:17:42.472Z,102367.84
2019-05-13T07:20:12.482Z,102372.17
2019-05-13T07:22:42.337Z,102368.55
2019-05-13T07:25:12.223Z,102371.39
2019-05-13T07:27:42.527Z,102374.78
2019-05-13T07:30:12.819Z,102370.09
2019-05-13T07:32:42.421Z,102371.70
2019-05-13T07:35:13.886Z,102372.66
2019-05-13T07:37:43.857Z,102369.78
2019-05-13T07:40:13.818Z,102365.18
2019-05-13T07:42:43.453Z,102370.81
2019-05-13T07:45:13.286Z,102366.79
2019-05-13T07:47:42.889Z,102370.45
2019-05-13T07:50:14.062Z,102376.98
2019-05-13T07:52:43.682Z,102371.38
2019-05-13T07:55:14.898Z,102363.08
2019-05-13T07:57:44.508Z,102369.78
2019-05-13T08:00:14.354Z,102372.63
2019-05-13T08:02:43.972Z,102366.88
2019-05-13T08:05:17.662Z,102377.20
2019-05-13T08:07:47.274Z,102374.61
2019-05-13T08:10:16.904Z,102372.02
2019-05-13T08:12:46.516Z,102373.23
2019-05-13T08:15:17.436Z,102370.19
2019-05-13T08:17:48.072Z,102365.87
2019-05-13T08:20:17.887Z,102356.23
2019-05-13T08:22:47.495Z,102373.67
2019-05-13T08:25:17.255Z,102372.63
2019-05-13T08:27:46.871Z,102369.80
2019-05-13T08:30:18.465Z,102369.70
2019-05-13T08:32:48.192Z,102374.41
2019-05-13T08:35:17.806Z,102377.67
2019-05-13T08:37:47.424Z,102361.56
2019-05-13T08:40:20.140Z,102371.12
2019-05-13T08:42:48.844Z,102379.37
2019-05-13T08:45:18.443Z,102374.45
2019-05-13T08:47:48.061Z,102372.95
2019-05-13T08:50:18.075Z,102369.39
2019-05-13T08:52:47.854Z,102370.09
2019-05-13T08:55:21.259Z,102366.38
2019-05-13T08:57:53.206Z,102371.91
2019-05-13T09:00:45.121Z,102368.66
2019-05-13T09:03:14.770Z,102375.80
2019-05-13T09:05:44.324Z,102362.37
2019-05-13T09:08:15.260Z,102369.14
2019-05-13T09:10:46.163Z,102363.77
2019-05-13T09:13:15.942Z,102353.05
2019-05-13T09:15:45.544Z,102357.95
2019-05-13T09:18:15.247Z,102365.67
2019-05-13T09:20:44.903Z,102361.22
2019-05-13T09:23:14.514Z,102358.08
2019-05-13T09:25:44.186Z,102363.16
2019-05-13T09:28:13.807Z,102360.68
2019-05-13T09:30:43.416Z,102357.98
2019-05-13T09:33:13.024Z,102357.49
2019-05-13T09:35:42.690Z,102355.86
2019-05-13T09:38:12.830Z,102355.53
2019-05-13T09:40:42.577Z,102351.27
2019-05-13T09:43:12.250Z,102350.07
2019-05-13T09:45:42.001Z,102344.63
2019-05-13T09:48:12.959Z,102350.92
2019-05-13T09:50:42.690Z,102338.97
2019-05-13T09:53:12.287Z,102340.25
2019-05-13T09:55:41.898Z,102338.66
2019-05-13T09:58:11.994Z,102336.08
2019-05-13T10:00:42.269Z,102332.80
2019-05-13T10:03:13.834Z,102335.88
2019-05-13T10:05:43.277Z,102327.42
2019-05-13T10:08:13.801Z,102323.92
2019-05-13T10:10:43.397Z,102320.81
2019-05-13T10:13:15.546Z,102325.09
2019-05-13T10:15:48.574Z,102327.73
2019-05-13T10:18:15.714Z,102338.64
2019-05-13T10:20:59.208Z,102334.36
2019-05-13T10:23:32.964Z,102329.80
2019-05-13T10:26:06.390Z,102337.59
2019-05-13T10:28:36.599Z,102336.00
2019-05-13T10:31:06.711Z,102337.34
2019-05-13T10:33:36.572Z,102333.88
2019-05-13T10:36:06.146Z,102343.59
2019-05-13T10:38:35.758Z,102331.70
2019-05-13T10:41:05.351Z,102333.50
2019-05-13T10:43:40.208Z,102328.80
2019-05-13T10:46:06.349Z,102325.97
2019-05-13T10:48:35.954Z,102338.82
2019-05-13T10:51:05.821Z,102332.51
2019-05-13T10:53:35.495Z,102337.94
2019-05-13T10:56:05.154Z,102327.09
2019-05-13T10:58:34.760Z,102330.61
2019-05-13T11:01:05.064Z,102329.86
2019-05-13T11:03:34.660Z,102331.00
2019-05-13T11:06:04.333Z,102321.72
2019-05-13T11:08:33.938Z,102309.97
2019-05-13T11:11:03.701Z,102322.26
2019-05-13T11:13:50.411Z,102313.70
2019-05-13T11:16:05.010Z,102311.89
2019-05-13T11:18:34.617Z,102311.93
2019-05-13T11:21:04.292Z,102312.23
2019-05-13T11:23:33.903Z,102305.73
2019-05-13T11:26:03.540Z,102312.78
2019-05-13T11:28:33.752Z,102315.14
2019-05-13T11:31:03.743Z,102296.55
2019-05-13T11:33:33.348Z,102291.20
2019-05-13T11:36:03.499Z,102303.04
2019-05-13T11:38:33.486Z,102298.24
2019-05-13T11:41:04.024Z,102287.66
2019-05-13T11:46:05.229Z,102286.86
2019-05-13T11:48:34.840Z,102282.08
2019-05-13T11:51:04.530Z,102281.85
2019-05-13T11:53:37.325Z,102269.20
2019-05-13T11:56:05.501Z,102274.29
2019-05-13T11:58:35.112Z,102266.95
2019-05-13T12:01:05.910Z,102268.62
2019-05-13T12:03:35.515Z,102267.57
2019-05-13T12:06:05.173Z,102268.48
2019-05-13T12:08:34.783Z,102244.50
2019-05-13T12:11:05.675Z,102253.61
2019-05-13T12:13:35.864Z,102257.08
2019-05-13T12:16:05.444Z,102245.01
2019-05-13T12:18:39.327Z,102253.36
2019-05-13T12:21:06.366Z,102250.84
2019-05-13T12:23:35.974Z,102250.97
2019-05-13T12:26:05.575Z,102247.42
2019-05-13T12:28:35.415Z,102244.23
2019-05-13T12:31:05.044Z,102235.22
2019-05-13T12:33:34.647Z,102221.39
2019-05-13T12:36:04.255Z,102220.96
2019-05-13T12:38:33.867Z,102213.95
2019-05-13T12:41:05.149Z,102202.44
2019-05-13T12:43:34.862Z,102208.38
2019-05-13T12:46:04.604Z,102201.64
2019-05-13T12:48:34.215Z,102207.14
2019-05-13T12:51:03.830Z,102197.95
2019-05-13T12:53:33.419Z,102189.66
2019-05-13T12:56:03.715Z,102195.33
2019-05-13T12:58:34.291Z,102192.97
2019-05-13T13:01:04.049Z,102184.95
2019-05-13T13:03:33.663Z,102193.52
2019-05-13T13:06:25.633Z,102183.61
2019-05-13T13:08:43.342Z,102177.89
2019-05-13T13:11:06.239Z,102174.27
2019-05-13T13:13:57.359Z,102160.92
2019-05-13T13:16:07.505Z,102167.89
2019-05-13T13:18:37.465Z,102165.09
2019-05-13T13:21:08.330Z,102172.16
2019-05-13T13:23:38.343Z,102162.78
2019-05-13T13:26:15.418Z,102159.39
2019-05-13T13:28:43.147Z,102162.32
2019-05-13T13:31:12.924Z,102149.78
2019-05-13T13:33:44.647Z,102158.92
2019-05-13T13:36:15.873Z,102160.99
2019-05-13T13:38:44.992Z,102160.55
2019-05-13T13:41:22.228Z,102142.91
2019-05-13T13:43:45.937Z,102152.89
2019-05-13T13:46:33.679Z,102149.28
2019-05-13T13:48:46.866Z,102144.12
2019-05-13T13:51:16.485Z,102126.36
2019-05-13T13:53:46.105Z,102125.09
2019-05-13T13:56:15.725Z,102125.91
2019-05-13T13:58:45.338Z,102119.20
2019-05-13T14:03:46.477Z,102128.91
2019-05-13T14:06:59.403Z,102129.50
2019-05-13T14:07:02.763Z,102283.23
2019-05-13T14:07:12.890Z,102125.16
2019-05-13T14:08:47.484Z,102134.27
2019-05-13T14:11:17.092Z,102129.06
2019-05-13T14:13:46.696Z,102120.20
2019-05-13T14:16:28.650Z,102127.53
2019-05-13T14:18:47.647Z,102120.95
2019-05-13T14:21:17.259Z,102122.58
2019-05-13T14:23:46.864Z,102120.64
2019-05-13T14:26:16.461Z,102115.61
2019-05-13T14:28:46.102Z,102103.16
2019-05-13T14:31:15.683Z,102116.98
2019-05-13T14:33:45.319Z,102110.83
2019-05-13T14:36:15.176Z,102105.53
2019-05-13T14:38:44.793Z,102100.01
2019-05-13T14:41:14.399Z,102094.80
2019-05-13T14:43:44.002Z,102091.92
2019-05-13T14:46:13.615Z,102093.13
2019-05-13T14:48:43.447Z,102088.53
2019-05-13T14:51:13.209Z,102095.06
2019-05-13T14:53:44.323Z,102098.41
2019-05-13T14:56:17.867Z,102097.26
2019-05-13T14:58:47.504Z,102088.72
2019-05-13T15:01:19.878Z,102077.16
2019-05-13T15:03:48.444Z,102076.52
2019-05-13T15:06:18.058Z,102074.95
2019-05-13T15:08:47.671Z,102075.98
2019-05-13T15:11:17.343Z,102084.28
2019-05-13T15:13:46.945Z,102071.70
2019-05-13T15:16:16.556Z,102078.03
2019-05-13T15:18:46.161Z,102081.23
2019-05-13T15:21:15.754Z,102084.37
2019-05-13T15:23:45.372Z,102080.73
2019-05-13T15:26:14.976Z,102079.20
2019-05-13T15:28:44.568Z,102085.09
2019-05-13T15:31:14.181Z,102077.58
2019-05-13T15:33:43.950Z,102079.88
2019-05-13T15:36:13.569Z,102082.72
2019-05-13T15:38:43.191Z,102073.41
2019-05-13T15:41:15.575Z,102069.73
2019-05-13T15:43:44.170Z,102068.14
2019-05-13T15:46:14.265Z,102061.33
2019-05-13T15:48:43.853Z,102068.91
2019-05-13T15:51:13.462Z,102059.47
2019-05-13T15:53:43.758Z,102063.66
2019-05-13T15:56:13.463Z,102061.34
2019-05-13T15:58:44.489Z,102065.59
2019-05-13T16:01:14.467Z,102066.78
2019-05-13T16:03:44.079Z,102063.00
2019-05-13T16:06:13.743Z,102051.05
2019-05-13T16:08:43.511Z,102043.76
2019-05-13T16:11:13.137Z,102051.97
2019-05-13T16:13:43.021Z,102053.77
2019-05-13T16:16:12.687Z,102056.32
2019-05-13T16:18:42.319Z,102052.83
2019-05-13T16:21:12.231Z,102054.20
2019-05-13T16:23:42.919Z,102048.50
2019-05-13T16:26:12.670Z,102060.22
2019-05-13T16:28:42.570Z,102052.59
2019-05-13T16:31:12.955Z,102053.41
2019-05-13T16:33:42.575Z,102048.22
2019-05-13T16:36:12.785Z,102048.22
2019-05-13T16:38:42.546Z,102044.11
2019-05-13T16:41:12.672Z,102046.84
2019-05-13T16:43:42.837Z,102050.69
2019-05-13T16:46:12.642Z,102044.67
2019-05-13T16:48:42.334Z,102047.42
2019-05-13T16:51:12.772Z,102048.25
2019-05-13T16:53:42.631Z,102048.23
2019-05-13T16:56:25.726Z,102049.00
2019-05-13T16:58:43.772Z,102042.14
2019-05-13T17:01:13.386Z,102047.57
2019-05-13T17:03:42.991Z,102041.57
2019-05-13T17:06:12.852Z,102044.29
2019-05-13T17:08:42.719Z,102045.11
2019-05-13T17:11:12.398Z,102045.75
2019-05-13T17:13:42.655Z,102041.13
2019-05-13T17:16:12.266Z,102040.31
2019-05-13T17:18:41.981Z,102038.42
2019-05-13T17:21:11.583Z,102035.14
2019-05-13T17:23:41.830Z,102039.22
2019-05-13T17:26:11.810Z,102041.61
2019-05-13T17:28:41.850Z,102039.09
2019-05-13T17:31:11.794Z,102040.34
2019-05-13T17:33:41.656Z,102045.41
2019-05-13T17:36:12.325Z,102042.28
2019-05-13T17:38:42.485Z,102035.64
2019-05-13T17:41:12.349Z,102037.45
2019-05-13T17:43:42.088Z,102039.55
2019-05-13T17:46:11.800Z,102035.91
2019-05-13T17:48:41.758Z,102040.77
2019-05-13T17:51:13.112Z,102041.86
2019-05-13T17:53:42.740Z,102040.84
2019-05-13T17:56:12.355Z,102041.73
2019-05-13T17:58:42.153Z,102046.66
2019-05-13T18:01:12.154Z,102044.25
2019-05-13T18:03:41.815Z,102042.38
2019-05-13T18:06:11.622Z,102042.91
2019-05-13T18:08:41.349Z,102045.57
2019-05-13T18:11:11.499Z,102050.87
2019-05-13T18:13:43.615Z,102051.80
2019-05-13T18:16:12.749Z,102044.21
2019-05-13T18:18:47.060Z,102048.09
2019-05-13T18:21:13.726Z,102047.29
2019-05-13T18:23:44.800Z,102044.89
2019-05-13T18:26:16.239Z,102047.34
2019-05-13T18:28:46.292Z,102053.08
2019-05-13T18:31:16.313Z,102052.03
2019-05-13T18:33:46.428Z,102048.59
2019-05-13T18:36:16.263Z,102045.91
2019-05-13T18:38:46.352Z,102045.63
2019-05-13T18:41:16.308Z,102041.62
2019-05-13T18:43:46.158Z,102033.75
2019-05-13T18:46:17.057Z,102032.19
2019-05-13T18:48:58.047Z,102033.95
2019-05-13T18:51:18.291Z,102035.13
2019-05-13T18:53:47.907Z,102032.80
2019-05-13T18:56:17.509Z,102036.19
2019-05-13T18:58:47.107Z,102035.59
2019-05-13T19:01:16.698Z,102038.30
2019-05-13T19:03:46.332Z,102038.78
2019-05-13T19:06:15.908Z,102037.74
2019-05-13T19:08:45.499Z,102035.04
2019-05-13T19:11:15.141Z,102036.39
2019-05-13T19:13:44.745Z,102037.16
2019-05-13T19:16:14.350Z,102043.64
2019-05-13T19:18:43.971Z,102039.86
2019-05-13T19:21:13.586Z,102039.02
2019-05-13T19:23:43.183Z,102042.84
2019-05-13T19:26:12.883Z,102043.44
2019-05-13T19:28:42.501Z,102046.67
2019-05-13T19:31:12.116Z,102046.46
2019-05-13T19:33:41.772Z,102047.27
2019-05-13T19:36:11.848Z,102047.17
2019-05-13T19:38:42.257Z,102050.53
2019-05-13T19:41:12.055Z,102051.33
2019-05-13T19:43:42.102Z,102045.97
2019-05-13T19:46:11.741Z,102042.28
2019-05-13T19:48:41.784Z,102039.16
2019-05-13T19:51:11.601Z,102041.44
2019-05-13T19:53:44.546Z,102041.06
2019-05-13T19:56:12.527Z,102038.44
2019-05-13T19:58:42.132Z,102040.94
2019-05-13T20:01:11.885Z,102044.20
2019-05-13T20:03:42.318Z,102044.75
2019-05-13T20:06:12.381Z,102042.73
2019-05-13T20:08:42.074Z,102036.08
2019-05-13T20:11:11.768Z,102034.30
2019-05-13T20:13:41.917Z,102034.03
2019-05-13T20:16:11.909Z,102035.39
2019-05-13T20:18:41.670Z,102030.63
2019-05-13T20:21:13.500Z,102036.86
2019-05-13T20:23:42.586Z,102042.09
2019-05-13T20:26:12.185Z,102035.73
2019-05-13T20:28:42.063Z,102036.29
2019-05-13T20:31:11.681Z,102031.64
2019-05-13T20:33:42.960Z,102027.44
2019-05-13T20:36:12.747Z,102035.17
2019-05-13T20:38:42.360Z,102036.13
2019-05-13T20:41:11.988Z,102032.98
2019-05-13T20:43:42.553Z,102037.02
2019-05-13T20:46:12.512Z,102037.47
2019-05-13T20:48:42.096Z,102036.34
2019-05-13T20:51:11.903Z,102036.28
2019-05-13T20:53:41.481Z,102041.37
2019-05-13T20:56:11.101Z,102041.52
2019-05-13T20:58:42.196Z,102038.95
2019-05-13T21:01:11.988Z,102041.06
2019-05-13T21:03:42.117Z,102039.72
2019-05-13T21:06:11.896Z,102040.23
2019-05-13T21:08:41.632Z,102040.30
2019-05-13T21:11:11.628Z,102037.02
2019-05-13T21:13:41.362Z,102043.55
2019-05-13T21:16:11.508Z,102046.11
2019-05-13T21:18:42.117Z,102045.20
2019-05-13T21:21:11.987Z,102049.31
2019-05-13T21:23:41.876Z,102046.55
2019-05-13T21:26:15.316Z,102039.50
2019-05-13T21:28:42.844Z,102046.89
2019-05-13T21:31:12.452Z,102041.11
2019-05-13T21:33:42.040Z,102045.77
2019-05-13T21:36:12.367Z,102042.61
2019-05-13T21:38:41.956Z,102043.84
2019-05-13T21:41:11.839Z,102044.97
2019-05-13T21:43:41.564Z,102050.45
2019-05-13T21:46:12.095Z,102039.77
2019-05-13T21:48:41.813Z,102043.80
2019-05-13T21:51:13.504Z,102038.59
2019-05-13T21:53:42.751Z,102042.92
2019-05-13T21:56:12.356Z,102046.67
2019-05-13T21:58:43.902Z,102042.53
2019-05-13T22:01:13.531Z,102039.84
2019-05-13T22:03:43.151Z,102041.43
2019-05-13T22:06:12.717Z,102042.73
2019-05-13T22:08:42.321Z,102038.03
2019-05-13T22:11:12.145Z,102037.47
2019-05-13T22:13:42.056Z,102035.23
2019-05-13T22:16:11.764Z,102038.08
2019-05-13T22:18:41.862Z,102037.02
2019-05-13T22:21:11.929Z,102032.09
2019-05-13T22:23:41.632Z,102032.23
2019-05-13T22:26:11.780Z,102032.69
2019-05-13T22:28:41.840Z,102037.56
2019-05-13T22:31:11.761Z,102036.05
2019-05-13T22:33:41.442Z,102033.66
2019-05-13T22:36:11.789Z,102034.70
2019-05-13T22:38:42.598Z,102036.45
2019-05-13T22:41:12.475Z,102032.69
2019-05-13T22:43:54.372Z,102038.08
2019-05-13T22:46:14.171Z,102033.14
2019-05-13T22:48:43.989Z,102040.78
2019-05-13T22:51:13.593Z,102043.19
2019-05-13T22:53:43.202Z,102042.58
2019-05-13T22:56:12.804Z,102041.97
2019-05-13T22:58:42.423Z,102041.38
2019-05-13T23:01:12.024Z,102045.20
2019-05-13T23:03:41.643Z,102043.31
2019-05-13T23:06:12.140Z,102039.87
2019-05-13T23:08:41.939Z,102039.05
2019-05-13T23:11:11.562Z,102040.48
2019-05-13T23:13:42.197Z,102038.98
2019-05-13T23:16:11.959Z,102035.68
2019-05-13T23:18:42.215Z,102030.52
2019-05-13T23:21:11.873Z,102022.20
2019-05-13T23:23:41.499Z,102020.58
2019-05-13T23:26:11.861Z,102023.11
2019-05-13T23:28:41.738Z,102022.30
2019-05-13T23:31:12.329Z,102022.30
2019-05-13T23:33:42.063Z,102021.25
2019-05-13T23:36:12.090Z,102022.59
2019-05-13T23:38:41.898Z,102014.22
2019-05-13T23:41:11.692Z,102021.70
2019-05-13T23:43:41.350Z,102016.37
2019-05-13T23:46:11.743Z,102016.53
2019-05-13T23:48:42.560Z,102019.83
2019-05-13T23:51:12.919Z,102016.23
2019-05-13T23:53:42.755Z,102022.08
2019-05-13T23:56:12.348Z,102022.52
2019-05-13T23:58:41.963Z,102019.15
